sensor_id;sensor_type;location;lat;lon;timestamp;P1;durP1;ratioP1;P2;durP2;ratioP2
4290;SDS011;2159;50.906;7.152;2022-10-04T00:02:16;7.23;;;4.80;;
4290;SDS011;2159;50.906;7.152;2022-10-04T00:04:46;7.00;;;4.57;;
4290;SDS011;2159;50.906;7.152;2022-10-04T00:07:15;10.80;;;4.33;;
4290;SDS011;2159;50.906;7.152;2022-10-04T00:09:45;5.90;;;4.27;;
4290;SDS011;2159;50.906;7.152;2022-10-04T00:12:16;7.70;;;4.40;;
4290;SDS011;2159;50.906;7.152;2022-10-04T00:14:46;7.90;;;4.50;;
4290;SDS011;2159;50.906;7.152;2022-10-04T00:17:17;7.50;;;4.40;;
4290;SDS011;2159;50.906;7.152;2022-10-04T00:19:48;8.43;;;4.23;;
4290;SDS011;2159;50.906;7.152;2022-10-04T00:22:17;14.17;;;4.30;;
4290;SDS011;2159;50.906;7.152;2022-10-04T00:30:35;6.27;;;4.07;;
4290;SDS011;2159;50.906;7.152;2022-10-04T00:33:03;6.40;;;4.23;;
4290;SDS011;2159;50.906;7.152;2022-10-04T00:35:48;7.53;;;4.00;;
4290;SDS011;2159;50.906;7.152;2022-10-04T00:38:16;8.60;;;4.03;;
4290;SDS011;2159;50.906;7.152;2022-10-04T00:40:53;6.23;;;4.27;;
4290;SDS011;2159;50.906;7.152;2022-10-04T00:43:23;6.53;;;4.50;;
4290;SDS011;2159;50.906;7.152;2022-10-04T00:45:52;4.53;;;3.80;;
4290;SDS011;2159;50.906;7.152;2022-10-04T00:48:32;6.80;;;4.67;;
4290;SDS011;2159;50.906;7.152;2022-10-04T00:51:08;5.40;;;4.20;;
4290;SDS011;2159;50.906;7.152;2022-10-04T00:53:48;6.87;;;4.30;;
4290;SDS011;2159;50.906;7.152;2022-10-04T00:56:19;5.63;;;3.57;;
4290;SDS011;2159;50.906;7.152;2022-10-04T00:59:03;4.83;;;4.03;;
4290;SDS011;2159;50.906;7.152;2022-10-04T01:01:32;8.30;;;3.80;;
4290;SDS011;2159;50.906;7.152;2022-10-04T01:04:01;4.87;;;4.10;;
4290;SDS011;2159;50.906;7.152;2022-10-04T01:06:31;6.17;;;4.37;;
4290;SDS011;2159;50.906;7.152;2022-10-04T01:09:00;5.67;;;4.00;;
4290;SDS011;2159;50.906;7.152;2022-10-04T01:11:29;6.97;;;4.43;;
4290;SDS011;2159;50.906;7.152;2022-10-04T01:13:58;6.93;;;4.20;;
4290;SDS011;2159;50.906;7.152;2022-10-04T01:16:28;7.87;;;4.07;;
4290;SDS011;2159;50.906;7.152;2022-10-04T01:19:01;7.37;;;4.43;;
4290;SDS011;2159;50.906;7.152;2022-10-04T01:21:56;5.60;;;4.27;;
4290;SDS011;2159;50.906;7.152;2022-10-04T01:24:26;5.17;;;4.00;;
4290;SDS011;2159;50.906;7.152;2022-10-04T01:26:59;6.33;;;4.40;;
4290;SDS011;2159;50.906;7.152;2022-10-04T01:29:27;8.00;;;4.30;;
4290;SDS011;2159;50.906;7.152;2022-10-04T01:31:56;4.80;;;3.83;;
4290;SDS011;2159;50.906;7.152;2022-10-04T01:34:24;10.70;;;4.60;;
4290;SDS011;2159;50.906;7.152;2022-10-04T01:36:53;10.33;;;4.77;;
4290;SDS011;2159;50.906;7.152;2022-10-04T01:39:21;5.67;;;5.07;;
4290;SDS011;2159;50.906;7.152;2022-10-04T01:41:52;4.63;;;4.23;;
4290;SDS011;2159;50.906;7.152;2022-10-04T01:44:23;5.57;;;4.10;;
4290;SDS011;2159;50.906;7.152;2022-10-04T01:46:54;7.60;;;4.33;;
4290;SDS011;2159;50.906;7.152;2022-10-04T01:49:25;9.53;;;4.20;;
4290;SDS011;2159;50.906;7.152;2022-10-04T01:51:55;4.50;;;3.73;;
4290;SDS011;2159;50.906;7.152;2022-10-04T01:54:28;4.97;;;4.27;;
4290;SDS011;2159;50.906;7.152;2022-10-04T01:57:00;5.83;;;4.43;;
4290;SDS011;2159;50.906;7.152;2022-10-04T01:59:30;6.43;;;4.20;;
4290;SDS011;2159;50.906;7.152;2022-10-04T02:01:58;12.20;;;4.97;;
4290;SDS011;2159;50.906;7.152;2022-10-04T02:04:27;5.17;;;4.03;;
4290;SDS011;2159;50.906;7.152;2022-10-04T02:06:55;5.60;;;4.03;;
4290;SDS011;2159;50.906;7.152;2022-10-04T02:09:25;5.60;;;4.30;;
4290;SDS011;2159;50.906;7.152;2022-10-04T02:11:53;8.47;;;4.23;;
4290;SDS011;2159;50.906;7.152;2022-10-04T02:14:22;5.00;;;4.00;;
4290;SDS011;2159;50.906;7.152;2022-10-04T02:16:51;8.07;;;4.00;;
4290;SDS011;2159;50.906;7.152;2022-10-04T02:19:19;6.40;;;4.30;;
4290;SDS011;2159;50.906;7.152;2022-10-04T02:21:47;5.20;;;4.10;;
4290;SDS011;2159;50.906;7.152;2022-10-04T02:24:15;4.30;;;3.90;;
4290;SDS011;2159;50.906;7.152;2022-10-04T02:26:47;4.97;;;4.10;;
4290;SDS011;2159;50.906;7.152;2022-10-04T02:29:15;8.90;;;4.50;;
4290;SDS011;2159;50.906;7.152;2022-10-04T02:31:44;6.43;;;3.90;;
4290;SDS011;2159;50.906;7.152;2022-10-04T02:34:30;4.30;;;4.00;;
4290;SDS011;2159;50.906;7.152;2022-10-04T02:36:59;5.53;;;4.00;;
4290;SDS011;2159;50.906;7.152;2022-10-04T02:39:29;5.10;;;3.70;;
4290;SDS011;2159;50.906;7.152;2022-10-04T02:41:59;4.70;;;3.93;;
4290;SDS011;2159;50.906;7.152;2022-10-04T02:44:30;8.17;;;4.00;;
4290;SDS011;2159;50.906;7.152;2022-10-04T02:47:04;7.73;;;3.80;;
4290;SDS011;2159;50.906;7.152;2022-10-04T02:49:34;12.40;;;4.20;;
4290;SDS011;2159;50.906;7.152;2022-10-04T02:52:04;4.00;;;3.60;;
4290;SDS011;2159;50.906;7.152;2022-10-04T02:54:35;9.47;;;4.00;;
4290;SDS011;2159;50.906;7.152;2022-10-04T02:57:04;4.67;;;4.23;;
4290;SDS011;2159;50.906;7.152;2022-10-04T02:59:31;7.30;;;4.40;;
4290;SDS011;2159;50.906;7.152;2022-10-04T03:02:01;9.73;;;4.10;;
4290;SDS011;2159;50.906;7.152;2022-10-04T03:04:30;8.13;;;4.00;;
4290;SDS011;2159;50.906;7.152;2022-10-04T03:06:58;10.57;;;4.43;;
4290;SDS011;2159;50.906;7.152;2022-10-04T03:09:26;5.00;;;4.00;;
4290;SDS011;2159;50.906;7.152;2022-10-04T03:11:55;9.90;;;3.83;;
4290;SDS011;2159;50.906;7.152;2022-10-04T03:14:23;8.67;;;4.10;;
4290;SDS011;2159;50.906;7.152;2022-10-04T03:16:52;7.27;;;4.00;;
4290;SDS011;2159;50.906;7.152;2022-10-04T03:19:20;5.13;;;4.27;;
4290;SDS011;2159;50.906;7.152;2022-10-04T03:21:50;8.30;;;4.10;;
4290;SDS011;2159;50.906;7.152;2022-10-04T03:24:19;6.33;;;4.20;;
4290;SDS011;2159;50.906;7.152;2022-10-04T03:26:48;7.33;;;3.90;;
4290;SDS011;2159;50.906;7.152;2022-10-04T03:29:16;4.23;;;3.47;;
4290;SDS011;2159;50.906;7.152;2022-10-04T03:31:44;3.90;;;3.60;;
4290;SDS011;2159;50.906;7.152;2022-10-04T03:34:13;4.20;;;3.80;;
4290;SDS011;2159;50.906;7.152;2022-10-04T03:36:42;6.17;;;4.40;;
4290;SDS011;2159;50.906;7.152;2022-10-04T03:39:11;8.47;;;3.93;;
4290;SDS011;2159;50.906;7.152;2022-10-04T03:41:43;5.47;;;4.20;;
4290;SDS011;2159;50.906;7.152;2022-10-04T03:44:12;5.53;;;3.90;;
4290;SDS011;2159;50.906;7.152;2022-10-04T03:46:41;6.70;;;4.07;;
4290;SDS011;2159;50.906;7.152;2022-10-04T03:49:10;9.47;;;4.43;;
4290;SDS011;2159;50.906;7.152;2022-10-04T03:51:41;8.30;;;4.13;;
4290;SDS011;2159;50.906;7.152;2022-10-04T03:54:11;5.73;;;4.07;;
4290;SDS011;2159;50.906;7.152;2022-10-04T03:56:43;9.30;;;4.03;;
4290;SDS011;2159;50.906;7.152;2022-10-04T03:59:10;6.70;;;4.40;;
4290;SDS011;2159;50.906;7.152;2022-10-04T04:01:40;6.73;;;4.37;;
4290;SDS011;2159;50.906;7.152;2022-10-04T04:04:20;5.87;;;4.40;;
4290;SDS011;2159;50.906;7.152;2022-10-04T04:06:51;5.17;;;4.30;;
4290;SDS011;2159;50.906;7.152;2022-10-04T04:09:22;9.97;;;4.30;;
4290;SDS011;2159;50.906;7.152;2022-10-04T04:11:51;8.87;;;4.33;;
4290;SDS011;2159;50.906;7.152;2022-10-04T04:14:23;6.30;;;4.40;;
4290;SDS011;2159;50.906;7.152;2022-10-04T04:16:51;4.67;;;4.27;;
4290;SDS011;2159;50.906;7.152;2022-10-04T04:19:20;6.37;;;4.80;;
4290;SDS011;2159;50.906;7.152;2022-10-04T04:21:48;6.03;;;4.27;;
4290;SDS011;2159;50.906;7.152;2022-10-04T04:24:18;8.70;;;5.20;;
4290;SDS011;2159;50.906;7.152;2022-10-04T04:26:52;7.30;;;4.90;;
4290;SDS011;2159;50.906;7.152;2022-10-04T04:29:22;7.00;;;4.53;;
4290;SDS011;2159;50.906;7.152;2022-10-04T04:31:51;11.30;;;5.20;;
4290;SDS011;2159;50.906;7.152;2022-10-04T04:34:21;6.60;;;5.03;;
4290;SDS011;2159;50.906;7.152;2022-10-04T04:36:50;6.47;;;4.60;;
4290;SDS011;2159;50.906;7.152;2022-10-04T04:39:22;11.90;;;5.03;;
4290;SDS011;2159;50.906;7.152;2022-10-04T04:42:11;5.50;;;4.53;;
4290;SDS011;2159;50.906;7.152;2022-10-04T04:44:44;5.50;;;4.83;;
4290;SDS011;2159;50.906;7.152;2022-10-04T04:47:18;9.37;;;4.63;;
4290;SDS011;2159;50.906;7.152;2022-10-04T04:49:47;7.03;;;4.40;;
4290;SDS011;2159;50.906;7.152;2022-10-04T04:52:16;6.67;;;4.60;;
4290;SDS011;2159;50.906;7.152;2022-10-04T04:54:44;5.90;;;4.43;;
4290;SDS011;2159;50.906;7.152;2022-10-04T04:57:15;5.57;;;4.83;;
4290;SDS011;2159;50.906;7.152;2022-10-04T04:59:43;6.80;;;4.40;;
4290;SDS011;2159;50.906;7.152;2022-10-04T05:02:25;10.53;;;4.60;;
4290;SDS011;2159;50.906;7.152;2022-10-04T05:07:35;5.30;;;4.80;;
4290;SDS011;2159;50.906;7.152;2022-10-04T05:10:17;8.87;;;5.07;;
4290;SDS011;2159;50.906;7.152;2022-10-04T05:12:46;7.17;;;5.00;;
4290;SDS011;2159;50.906;7.152;2022-10-04T05:15:14;8.37;;;4.57;;
4290;SDS011;2159;50.906;7.152;2022-10-04T05:17:41;7.13;;;5.17;;
4290;SDS011;2159;50.906;7.152;2022-10-04T05:20:09;13.13;;;5.77;;
4290;SDS011;2159;50.906;7.152;2022-10-04T05:22:38;7.07;;;4.63;;
4290;SDS011;2159;50.906;7.152;2022-10-04T05:25:08;5.90;;;5.17;;
4290;SDS011;2159;50.906;7.152;2022-10-04T05:27:36;6.53;;;4.73;;
4290;SDS011;2159;50.906;7.152;2022-10-04T05:30:07;5.27;;;4.50;;
4290;SDS011;2159;50.906;7.152;2022-10-04T05:32:38;7.47;;;4.90;;
4290;SDS011;2159;50.906;7.152;2022-10-04T05:35:13;7.67;;;4.93;;
4290;SDS011;2159;50.906;7.152;2022-10-04T05:37:44;8.50;;;5.30;;
4290;SDS011;2159;50.906;7.152;2022-10-04T05:40:26;10.20;;;5.40;;
4290;SDS011;2159;50.906;7.152;2022-10-04T05:42:55;8.37;;;4.67;;
4290;SDS011;2159;50.906;7.152;2022-10-04T05:45:26;8.37;;;5.17;;
4290;SDS011;2159;50.906;7.152;2022-10-04T05:47:54;8.87;;;5.10;;
4290;SDS011;2159;50.906;7.152;2022-10-04T05:50:25;7.50;;;5.17;;
4290;SDS011;2159;50.906;7.152;2022-10-04T05:53:05;6.33;;;5.17;;
4290;SDS011;2159;50.906;7.152;2022-10-04T05:55:36;8.57;;;5.60;;
4290;SDS011;2159;50.906;7.152;2022-10-04T05:58:15;9.20;;;5.70;;
4290;SDS011;2159;50.906;7.152;2022-10-04T06:00:53;10.33;;;5.63;;
4290;SDS011;2159;50.906;7.152;2022-10-04T06:03:31;6.10;;;5.50;;
4290;SDS011;2159;50.906;7.152;2022-10-04T06:06:04;6.70;;;5.97;;
4290;SDS011;2159;50.906;7.152;2022-10-04T06:08:41;6.70;;;5.23;;
4290;SDS011;2159;50.906;7.152;2022-10-04T06:11:17;8.20;;;5.70;;
4290;SDS011;2159;50.906;7.152;2022-10-04T06:14:00;8.23;;;5.63;;
4290;SDS011;2159;50.906;7.152;2022-10-04T06:16:38;9.40;;;5.83;;
4290;SDS011;2159;50.906;7.152;2022-10-04T06:19:13;7.00;;;5.73;;
4290;SDS011;2159;50.906;7.152;2022-10-04T06:21:54;7.60;;;6.37;;
4290;SDS011;2159;50.906;7.152;2022-10-04T06:24:26;7.40;;;5.80;;
4290;SDS011;2159;50.906;7.152;2022-10-04T06:26:55;6.80;;;5.13;;
4290;SDS011;2159;50.906;7.152;2022-10-04T06:29:26;10.50;;;6.10;;
4290;SDS011;2159;50.906;7.152;2022-10-04T06:32:03;9.30;;;5.90;;
4290;SDS011;2159;50.906;7.152;2022-10-04T06:34:38;8.50;;;6.10;;
4290;SDS011;2159;50.906;7.152;2022-10-04T06:37:23;10.20;;;5.97;;
4290;SDS011;2159;50.906;7.152;2022-10-04T06:40:05;9.70;;;5.80;;
4290;SDS011;2159;50.906;7.152;2022-10-04T06:42:41;6.97;;;5.93;;
4290;SDS011;2159;50.906;7.152;2022-10-04T06:48:02;9.40;;;6.57;;
4290;SDS011;2159;50.906;7.152;2022-10-04T06:50:33;10.70;;;6.20;;
4290;SDS011;2159;50.906;7.152;2022-10-04T06:53:08;12.00;;;5.90;;
4290;SDS011;2159;50.906;7.152;2022-10-04T06:55:51;7.13;;;5.87;;
4290;SDS011;2159;50.906;7.152;2022-10-04T06:58:29;9.87;;;5.90;;
4290;SDS011;2159;50.906;7.152;2022-10-04T07:01:01;9.33;;;6.20;;
4290;SDS011;2159;50.906;7.152;2022-10-04T07:03:33;8.30;;;6.07;;
4290;SDS011;2159;50.906;7.152;2022-10-04T07:06:04;9.73;;;6.40;;
4290;SDS011;2159;50.906;7.152;2022-10-04T07:08:34;6.60;;;5.90;;
4290;SDS011;2159;50.906;7.152;2022-10-04T07:11:04;7.53;;;6.07;;
4290;SDS011;2159;50.906;7.152;2022-10-04T07:13:38;7.63;;;6.03;;
4290;SDS011;2159;50.906;7.152;2022-10-04T07:16:08;6.70;;;5.97;;
4290;SDS011;2159;50.906;7.152;2022-10-04T07:21:25;9.13;;;5.77;;
4290;SDS011;2159;50.906;7.152;2022-10-04T07:23:55;9.30;;;5.83;;
4290;SDS011;2159;50.906;7.152;2022-10-04T07:26:24;9.40;;;5.80;;
4290;SDS011;2159;50.906;7.152;2022-10-04T07:28:54;7.83;;;6.37;;
4290;SDS011;2159;50.906;7.152;2022-10-04T07:31:40;9.33;;;6.10;;
4290;SDS011;2159;50.906;7.152;2022-10-04T07:34:09;7.53;;;5.90;;
4290;SDS011;2159;50.906;7.152;2022-10-04T07:36:40;7.33;;;6.40;;
4290;SDS011;2159;50.906;7.152;2022-10-04T07:39:10;11.20;;;6.50;;
4290;SDS011;2159;50.906;7.152;2022-10-04T07:41:42;11.40;;;6.23;;
4290;SDS011;2159;50.906;7.152;2022-10-04T07:44:13;8.00;;;5.77;;
4290;SDS011;2159;50.906;7.152;2022-10-04T07:46:43;9.73;;;6.37;;
4290;SDS011;2159;50.906;7.152;2022-10-04T07:49:13;9.27;;;6.27;;
4290;SDS011;2159;50.906;7.152;2022-10-04T07:51:47;7.27;;;5.53;;
4290;SDS011;2159;50.906;7.152;2022-10-04T07:54:18;10.37;;;6.40;;
4290;SDS011;2159;50.906;7.152;2022-10-04T07:56:50;6.53;;;5.73;;
4290;SDS011;2159;50.906;7.152;2022-10-04T07:59:27;7.37;;;6.03;;
4290;SDS011;2159;50.906;7.152;2022-10-04T08:02:01;7.83;;;5.73;;
4290;SDS011;2159;50.906;7.152;2022-10-04T08:04:35;9.50;;;5.60;;
4290;SDS011;2159;50.906;7.152;2022-10-04T08:07:12;8.53;;;6.10;;
4290;SDS011;2159;50.906;7.152;2022-10-04T08:09:42;7.80;;;5.53;;
4290;SDS011;2159;50.906;7.152;2022-10-04T08:12:15;7.87;;;5.20;;
4290;SDS011;2159;50.906;7.152;2022-10-04T08:14:51;7.77;;;5.30;;
4290;SDS011;2159;50.906;7.152;2022-10-04T08:17:23;8.00;;;5.53;;
4290;SDS011;2159;50.906;7.152;2022-10-04T08:19:57;6.57;;;5.40;;
4290;SDS011;2159;50.906;7.152;2022-10-04T08:22:33;7.53;;;5.40;;
4290;SDS011;2159;50.906;7.152;2022-10-04T08:25:02;6.57;;;5.43;;
4290;SDS011;2159;50.906;7.152;2022-10-04T08:27:38;9.70;;;5.40;;
4290;SDS011;2159;50.906;7.152;2022-10-04T08:30:10;8.10;;;5.73;;
4290;SDS011;2159;50.906;7.152;2022-10-04T08:32:43;8.60;;;5.40;;
4290;SDS011;2159;50.906;7.152;2022-10-04T08:38:17;6.27;;;5.37;;
4290;SDS011;2159;50.906;7.152;2022-10-04T08:43:53;10.10;;;5.20;;
4290;SDS011;2159;50.906;7.152;2022-10-04T08:46:41;11.40;;;5.70;;
4290;SDS011;2159;50.906;7.152;2022-10-04T08:52:17;9.70;;;5.67;;
4290;SDS011;2159;50.906;7.152;2022-10-04T08:55:06;8.27;;;4.87;;
4290;SDS011;2159;50.906;7.152;2022-10-04T08:57:44;7.80;;;5.37;;
4290;SDS011;2159;50.906;7.152;2022-10-04T09:00:18;8.17;;;4.80;;
4290;SDS011;2159;50.906;7.152;2022-10-04T09:03:02;7.10;;;5.07;;
4290;SDS011;2159;50.906;7.152;2022-10-04T09:05:52;7.40;;;4.50;;
4290;SDS011;2159;50.906;7.152;2022-10-04T09:08:37;10.10;;;5.03;;
4290;SDS011;2159;50.906;7.152;2022-10-04T09:14:04;8.37;;;4.57;;
4290;SDS011;2159;50.906;7.152;2022-10-04T09:16:38;5.00;;;4.50;;
4290;SDS011;2159;50.906;7.152;2022-10-04T09:19:18;8.10;;;4.17;;
4290;SDS011;2159;50.906;7.152;2022-10-04T09:22:07;5.13;;;4.13;;
4290;SDS011;2159;50.906;7.152;2022-10-04T09:24:47;4.20;;;3.57;;
4290;SDS011;2159;50.906;7.152;2022-10-04T09:27:23;5.83;;;4.20;;
4290;SDS011;2159;50.906;7.152;2022-10-04T09:30:17;5.20;;;4.03;;
4290;SDS011;2159;50.906;7.152;2022-10-04T09:32:59;6.67;;;4.10;;
4290;SDS011;2159;50.906;7.152;2022-10-04T09:38:22;4.83;;;4.23;;
4290;SDS011;2159;50.906;7.152;2022-10-04T09:41:06;7.57;;;4.63;;
4290;SDS011;2159;50.906;7.152;2022-10-04T09:46:41;4.20;;;3.70;;
4290;SDS011;2159;50.906;7.152;2022-10-04T09:49:17;5.90;;;3.50;;
4290;SDS011;2159;50.906;7.152;2022-10-04T09:51:57;6.10;;;4.13;;
4290;SDS011;2159;50.906;7.152;2022-10-04T09:54:42;4.77;;;3.73;;
4290;SDS011;2159;50.906;7.152;2022-10-04T09:57:24;4.53;;;3.97;;
4290;SDS011;2159;50.906;7.152;2022-10-04T10:00:06;4.83;;;4.20;;
4290;SDS011;2159;50.906;7.152;2022-10-04T10:02:56;4.57;;;3.80;;
4290;SDS011;2159;50.906;7.152;2022-10-04T10:05:30;4.17;;;3.77;;
4290;SDS011;2159;50.906;7.152;2022-10-04T10:08:07;4.27;;;3.70;;
4290;SDS011;2159;50.906;7.152;2022-10-04T10:10:40;3.83;;;3.40;;
4290;SDS011;2159;50.906;7.152;2022-10-04T10:13:31;7.33;;;3.80;;
4290;SDS011;2159;50.906;7.152;2022-10-04T10:19:00;8.30;;;4.20;;
4290;SDS011;2159;50.906;7.152;2022-10-04T10:21:34;5.03;;;4.10;;
4290;SDS011;2159;50.906;7.152;2022-10-04T10:24:23;5.10;;;3.40;;
4290;SDS011;2159;50.906;7.152;2022-10-04T10:26:56;6.20;;;4.20;;
4290;SDS011;2159;50.906;7.152;2022-10-04T10:29:34;4.70;;;3.83;;
4290;SDS011;2159;50.906;7.152;2022-10-04T10:32:09;6.67;;;3.80;;
4290;SDS011;2159;50.906;7.152;2022-10-04T10:34:48;6.00;;;3.83;;
4290;SDS011;2159;50.906;7.152;2022-10-04T10:37:22;7.83;;;3.80;;
4290;SDS011;2159;50.906;7.152;2022-10-04T10:39:59;5.23;;;3.23;;
4290;SDS011;2159;50.906;7.152;2022-10-04T10:42:39;13.27;;;4.10;;
4290;SDS011;2159;50.906;7.152;2022-10-04T10:45:18;3.80;;;3.10;;
4290;SDS011;2159;50.906;7.152;2022-10-04T10:47:49;7.07;;;3.50;;
4290;SDS011;2159;50.906;7.152;2022-10-04T10:50:23;3.90;;;3.13;;
4290;SDS011;2159;50.906;7.152;2022-10-04T10:53:09;5.83;;;3.73;;
4290;SDS011;2159;50.906;7.152;2022-10-04T10:58:29;3.23;;;2.80;;
4290;SDS011;2159;50.906;7.152;2022-10-04T11:01:03;10.97;;;3.57;;
4290;SDS011;2159;50.906;7.152;2022-10-04T11:06:31;3.60;;;3.30;;
4290;SDS011;2159;50.906;7.152;2022-10-04T11:09:19;4.90;;;3.40;;
4290;SDS011;2159;50.906;7.152;2022-10-04T11:11:55;9.03;;;3.53;;
4290;SDS011;2159;50.906;7.152;2022-10-04T11:14:31;5.73;;;3.10;;
4290;SDS011;2159;50.906;7.152;2022-10-04T11:17:21;4.70;;;3.33;;
4290;SDS011;2159;50.906;7.152;2022-10-04T11:28:11;20.87;;;3.50;;
4290;SDS011;2159;50.906;7.152;2022-10-04T11:36:30;3.73;;;3.30;;
4290;SDS011;2159;50.906;7.152;2022-10-04T11:39:11;5.70;;;3.80;;
4290;SDS011;2159;50.906;7.152;2022-10-04T11:41:46;3.63;;;2.80;;
4290;SDS011;2159;50.906;7.152;2022-10-04T11:44:23;6.97;;;3.03;;
4290;SDS011;2159;50.906;7.152;2022-10-04T11:46:57;8.33;;;3.20;;
4290;SDS011;2159;50.906;7.152;2022-10-04T11:49:31;5.33;;;2.50;;
4290;SDS011;2159;50.906;7.152;2022-10-04T11:52:12;4.70;;;2.97;;
4290;SDS011;2159;50.906;7.152;2022-10-04T11:54:54;9.33;;;3.10;;
4290;SDS011;2159;50.906;7.152;2022-10-04T11:57:29;4.47;;;3.00;;
4290;SDS011;2159;50.906;7.152;2022-10-04T12:00:00;3.20;;;2.90;;
4290;SDS011;2159;50.906;7.152;2022-10-04T12:02:33;6.60;;;2.80;;
4290;SDS011;2159;50.906;7.152;2022-10-04T12:05:22;3.27;;;2.50;;
4290;SDS011;2159;50.906;7.152;2022-10-04T12:07:59;3.17;;;2.87;;
4290;SDS011;2159;50.906;7.152;2022-10-04T12:10:33;3.50;;;3.07;;
4290;SDS011;2159;50.906;7.152;2022-10-04T12:13:10;3.50;;;3.00;;
4290;SDS011;2159;50.906;7.152;2022-10-04T12:15:54;3.17;;;2.87;;
4290;SDS011;2159;50.906;7.152;2022-10-04T12:18:27;3.33;;;2.70;;
4290;SDS011;2159;50.906;7.152;2022-10-04T12:21:08;3.90;;;2.97;;
4290;SDS011;2159;50.906;7.152;2022-10-04T12:23:53;4.53;;;2.90;;
4290;SDS011;2159;50.906;7.152;2022-10-04T12:29:18;7.10;;;2.73;;
4290;SDS011;2159;50.906;7.152;2022-10-04T12:31:48;3.87;;;2.77;;
4290;SDS011;2159;50.906;7.152;2022-10-04T12:34:21;6.87;;;3.03;;
4290;SDS011;2159;50.906;7.152;2022-10-04T12:36:56;4.27;;;2.73;;
4290;SDS011;2159;50.906;7.152;2022-10-04T12:39:38;4.90;;;3.17;;
4290;SDS011;2159;50.906;7.152;2022-10-04T12:42:16;2.93;;;2.70;;
4290;SDS011;2159;50.906;7.152;2022-10-04T12:44:53;3.30;;;2.70;;
4290;SDS011;2159;50.906;7.152;2022-10-04T12:50:13;4.30;;;2.70;;
4290;SDS011;2159;50.906;7.152;2022-10-04T12:52:44;6.33;;;2.97;;
4290;SDS011;2159;50.906;7.152;2022-10-04T12:55:17;3.77;;;3.10;;
4290;SDS011;2159;50.906;7.152;2022-10-04T12:57:47;6.30;;;3.17;;
4290;SDS011;2159;50.906;7.152;2022-10-04T13:00:18;4.63;;;3.03;;
4290;SDS011;2159;50.906;7.152;2022-10-04T13:02:52;4.20;;;2.70;;
4290;SDS011;2159;50.906;7.152;2022-10-04T13:05:25;4.83;;;3.10;;
4290;SDS011;2159;50.906;7.152;2022-10-04T13:08:15;4.13;;;3.27;;
4290;SDS011;2159;50.906;7.152;2022-10-04T13:10:49;3.83;;;3.17;;
4290;SDS011;2159;50.906;7.152;2022-10-04T13:13:27;4.23;;;2.80;;
4290;SDS011;2159;50.906;7.152;2022-10-04T13:15:57;5.17;;;2.53;;
4290;SDS011;2159;50.906;7.152;2022-10-04T13:18:49;4.77;;;3.17;;
4290;SDS011;2159;50.906;7.152;2022-10-04T13:21:22;3.33;;;2.87;;
4290;SDS011;2159;50.906;7.152;2022-10-04T13:23:55;3.70;;;2.93;;
4290;SDS011;2159;50.906;7.152;2022-10-04T13:26:36;5.20;;;3.20;;
4290;SDS011;2159;50.906;7.152;2022-10-04T13:29:06;3.83;;;3.00;;
4290;SDS011;2159;50.906;7.152;2022-10-04T13:31:36;3.40;;;2.47;;
4290;SDS011;2159;50.906;7.152;2022-10-04T13:34:17;5.70;;;2.90;;
4290;SDS011;2159;50.906;7.152;2022-10-04T13:39:47;3.60;;;3.30;;
4290;SDS011;2159;50.906;7.152;2022-10-04T13:42:28;3.30;;;3.00;;
4290;SDS011;2159;50.906;7.152;2022-10-04T13:45:01;3.90;;;2.70;;
4290;SDS011;2159;50.906;7.152;2022-10-04T13:47:35;3.23;;;2.90;;
4290;SDS011;2159;50.906;7.152;2022-10-04T13:50:09;3.37;;;2.80;;
4290;SDS011;2159;50.906;7.152;2022-10-04T13:52:49;6.13;;;3.30;;
4290;SDS011;2159;50.906;7.152;2022-10-04T13:55:40;3.53;;;3.00;;
4290;SDS011;2159;50.906;7.152;2022-10-04T13:58:33;5.63;;;2.87;;
4290;SDS011;2159;50.906;7.152;2022-10-04T14:01:15;4.47;;;3.00;;
4290;SDS011;2159;50.906;7.152;2022-10-04T14:03:47;3.93;;;2.80;;
4290;SDS011;2159;50.906;7.152;2022-10-04T14:06:24;10.13;;;3.30;;
4290;SDS011;2159;50.906;7.152;2022-10-04T14:08:58;4.97;;;3.30;;
4290;SDS011;2159;50.906;7.152;2022-10-04T14:11:42;3.77;;;3.13;;
4290;SDS011;2159;50.906;7.152;2022-10-04T14:17:11;3.20;;;2.90;;
4290;SDS011;2159;50.906;7.152;2022-10-04T14:19:59;4.87;;;3.20;;
4290;SDS011;2159;50.906;7.152;2022-10-04T14:22:49;4.57;;;3.00;;
4290;SDS011;2159;50.906;7.152;2022-10-04T14:28:30;4.43;;;3.23;;
4290;SDS011;2159;50.906;7.152;2022-10-04T14:31:19;4.57;;;3.10;;
4290;SDS011;2159;50.906;7.152;2022-10-04T14:33:53;4.53;;;3.60;;
4290;SDS011;2159;50.906;7.152;2022-10-04T14:36:37;5.10;;;3.53;;
4290;SDS011;2159;50.906;7.152;2022-10-04T14:39:19;4.33;;;3.93;;
4290;SDS011;2159;50.906;7.152;2022-10-04T14:42:13;4.40;;;3.87;;
4290;SDS011;2159;50.906;7.152;2022-10-04T14:47:39;8.30;;;3.30;;
4290;SDS011;2159;50.906;7.152;2022-10-04T14:50:19;4.00;;;3.60;;
4290;SDS011;2159;50.906;7.152;2022-10-04T14:52:53;5.53;;;3.50;;
4290;SDS011;2159;50.906;7.152;2022-10-04T14:55:34;7.20;;;3.70;;
4290;SDS011;2159;50.906;7.152;2022-10-04T14:58:10;4.10;;;3.60;;
4290;SDS011;2159;50.906;7.152;2022-10-04T15:00:47;5.70;;;3.30;;
4290;SDS011;2159;50.906;7.152;2022-10-04T15:03:27;3.23;;;2.90;;
4290;SDS011;2159;50.906;7.152;2022-10-04T15:06:01;7.37;;;4.10;;
4290;SDS011;2159;50.906;7.152;2022-10-04T15:08:44;5.60;;;3.43;;
4290;SDS011;2159;50.906;7.152;2022-10-04T15:11:18;4.90;;;3.40;;
4290;SDS011;2159;50.906;7.152;2022-10-04T15:13:59;5.60;;;3.00;;
4290;SDS011;2159;50.906;7.152;2022-10-04T15:16:31;4.80;;;3.17;;
4290;SDS011;2159;50.906;7.152;2022-10-04T15:19:03;5.00;;;3.47;;
4290;SDS011;2159;50.906;7.152;2022-10-04T15:21:34;6.97;;;3.77;;
4290;SDS011;2159;50.906;7.152;2022-10-04T15:24:21;4.60;;;3.07;;
4290;SDS011;2159;50.906;7.152;2022-10-04T15:26:51;3.40;;;3.10;;
4290;SDS011;2159;50.906;7.152;2022-10-04T15:29:22;4.50;;;3.30;;
4290;SDS011;2159;50.906;7.152;2022-10-04T15:31:52;6.30;;;3.37;;
4290;SDS011;2159;50.906;7.152;2022-10-04T15:34:27;4.03;;;3.60;;
4290;SDS011;2159;50.906;7.152;2022-10-04T15:37:02;4.10;;;3.30;;
4290;SDS011;2159;50.906;7.152;2022-10-04T15:42:23;5.60;;;3.37;;
4290;SDS011;2159;50.906;7.152;2022-10-04T15:44:55;4.27;;;3.20;;
4290;SDS011;2159;50.906;7.152;2022-10-04T15:47:26;4.40;;;3.17;;
4290;SDS011;2159;50.906;7.152;2022-10-04T15:50:09;7.13;;;3.20;;
4290;SDS011;2159;50.906;7.152;2022-10-04T15:52:51;3.93;;;3.40;;
4290;SDS011;2159;50.906;7.152;2022-10-04T15:55:20;4.90;;;3.63;;
4290;SDS011;2159;50.906;7.152;2022-10-04T16:00:44;5.63;;;4.20;;
4290;SDS011;2159;50.906;7.152;2022-10-04T16:03:15;5.03;;;4.10;;
4290;SDS011;2159;50.906;7.152;2022-10-04T16:05:46;6.00;;;4.57;;
4290;SDS011;2159;50.906;7.152;2022-10-04T16:08:30;4.50;;;4.00;;
4290;SDS011;2159;50.906;7.152;2022-10-04T16:11:12;9.90;;;3.93;;
4290;SDS011;2159;50.906;7.152;2022-10-04T16:16:40;4.83;;;3.50;;
4290;SDS011;2159;50.906;7.152;2022-10-04T16:19:17;4.23;;;3.60;;
4290;SDS011;2159;50.906;7.152;2022-10-04T16:21:51;4.77;;;4.37;;
4290;SDS011;2159;50.906;7.152;2022-10-04T16:27:07;6.03;;;3.90;;
4290;SDS011;2159;50.906;7.152;2022-10-04T16:29:44;8.07;;;3.90;;
4290;SDS011;2159;50.906;7.152;2022-10-04T16:32:37;8.53;;;3.60;;
4290;SDS011;2159;50.906;7.152;2022-10-04T16:35:13;5.83;;;4.00;;
4290;SDS011;2159;50.906;7.152;2022-10-04T16:37:45;4.30;;;3.90;;
4290;SDS011;2159;50.906;7.152;2022-10-04T16:40:24;6.80;;;3.60;;
4290;SDS011;2159;50.906;7.152;2022-10-04T16:42:53;6.17;;;4.30;;
4290;SDS011;2159;50.906;7.152;2022-10-04T16:45:29;6.20;;;4.40;;
4290;SDS011;2159;50.906;7.152;2022-10-04T16:47:58;4.73;;;4.23;;
4290;SDS011;2159;50.906;7.152;2022-10-04T16:53:22;5.13;;;4.03;;
4290;SDS011;2159;50.906;7.152;2022-10-04T16:55:52;7.30;;;5.00;;
4290;SDS011;2159;50.906;7.152;2022-10-04T16:58:34;5.20;;;4.40;;
4290;SDS011;2159;50.906;7.152;2022-10-04T17:01:28;8.70;;;5.10;;
4290;SDS011;2159;50.906;7.152;2022-10-04T17:04:01;5.07;;;4.47;;
4290;SDS011;2159;50.906;7.152;2022-10-04T17:06:35;6.07;;;4.33;;
4290;SDS011;2159;50.906;7.152;2022-10-04T17:09:15;6.07;;;4.00;;
4290;SDS011;2159;50.906;7.152;2022-10-04T17:11:46;5.10;;;4.60;;
4290;SDS011;2159;50.906;7.152;2022-10-04T17:14:31;8.50;;;4.30;;
4290;SDS011;2159;50.906;7.152;2022-10-04T17:17:02;6.27;;;4.63;;
4290;SDS011;2159;50.906;7.152;2022-10-04T17:19:38;7.40;;;5.40;;
4290;SDS011;2159;50.906;7.152;2022-10-04T17:22:13;11.37;;;6.87;;
4290;SDS011;2159;50.906;7.152;2022-10-04T17:24:47;9.17;;;7.60;;
4290;SDS011;2159;50.906;7.152;2022-10-04T17:27:41;13.73;;;8.47;;